Time;durP1;ratioP1;P1;durP2;ratioP2;P2;SDS_P1;SDS_P2;PMS_P1;PMS_P2;Temp;Humidity;BMP_temperature;BMP_pressure;BME280_temperature;BME280_humidity;BME280_pressure;Samples;Min_cycle;Max_cycle;Signal;HPM_P1;HPM_P2
2021/05/14 00:00:48;;;;;;;1.67;1.45;;;;;;;;;;5114464;28;20200;-40
2021/05/14 00:03:14;;;;;;;1.38;1.27;;;;;;;;;;5115035;28;20173;-41
2021/05/14 00:05:40;;;;;;;1.95;1.15;;;;;;;;;;5114871;28;20452;-40
2021/05/14 00:08:06;;;;;;;2.83;1.42;;;;;;;;;;5110971;28;20444;-40
2021/05/14 00:10:38;;;;;;;0.98;0.90;;;;;;;;;;5112682;28;20177;-40
2021/05/14 00:13:04;;;;;;;2.35;1.50;;;;;;;;;;5114534;28;20176;-40
2021/05/14 00:15:30;;;;;;;1.20;1.10;;;;;;;;;;5114950;28;20169;-41
2021/05/14 00:17:56;;;;;;;1.60;1.30;;;;;;;;;;5114527;28;20173;-41
2021/05/14 00:20:22;;;;;;;1.38;1.23;;;;;;;;;;5114689;28;20259;-40
2021/05/14 00:22:48;;;;;;;1.73;1.45;;;;;;;;;;5114150;28;20211;-40
2021/05/14 00:25:14;;;;;;;1.02;1.00;;;;;;;;;;5113993;28;20586;-40
2021/05/14 00:27:41;;;;;;;1.30;1.20;;;;;;;;;;5115047;28;20180;-40
2021/05/14 00:30:08;;;;;;;1.55;1.10;;;;;;;;;;5114425;28;20187;-40
2021/05/14 00:32:37;;;;;;;1.05;0.93;;;;;;;;;;5116845;28;20627;-40
2021/05/14 00:35:04;;;;;;;1.70;1.20;;;;;;;;;;5119061;28;20177;-41
2021/05/14 00:37:30;;;;;;;1.42;1.33;;;;;;;;;;5118853;28;20426;-40
2021/05/14 00:39:56;;;;;;;1.25;1.00;;;;;;;;;;5118546;28;20184;-40
2021/05/14 00:42:22;;;;;;;1.58;1.30;;;;;;;;;;5106242;28;20209;-40
2021/05/14 00:44:48;;;;;;;1.80;1.33;;;;;;;;;;5104728;28;20177;-41
2021/05/14 00:47:16;;;;;;;1.20;1.10;;;;;;;;;;5118479;28;20544;-40
2021/05/14 00:49:44;;;;;;;0.98;0.98;;;;;;;;;;5118534;28;20258;-41
2021/05/14 00:52:10;;;;;;;1.10;1.00;;;;;;;;;;5117480;28;20205;-40
2021/05/14 00:54:37;;;;;;;0.98;0.90;;;;;;;;;;5118261;28;20189;-40
2021/05/14 00:57:04;;;;;;;0.90;0.90;;;;;;;;;;5118726;28;20188;-41
2021/05/14 00:59:30;;;;;;;0.93;0.93;;;;;;;;;;5117158;28;20177;-40
2021/05/14 01:01:56;;;;;;;1.15;1.00;;;;;;;;;;5099296;28;20203;-40
2021/05/14 01:04:23;;;;;;;1.75;1.30;;;;;;;;;;5117935;28;20199;-40
2021/05/14 01:06:49;;;;;;;1.50;1.10;;;;;;;;;;5117784;28;20177;-41
2021/05/14 01:09:15;;;;;;;1.38;1.20;;;;;;;;;;5100625;28;20268;-40
2021/05/14 01:11:41;;;;;;;1.52;1.10;;;;;;;;;;5117961;28;20256;-40
2021/05/14 01:14:08;;;;;;;0.93;0.93;;;;;;;;;;5100328;28;20503;-40
2021/05/14 01:16:34;;;;;;;1.17;1.08;;;;;;;;;;5117201;28;20184;-40
2021/05/14 01:19:00;;;;;;;1.10;1.10;;;;;;;;;;5118060;28;20238;-40
2021/05/14 01:21:26;;;;;;;1.35;1.02;;;;;;;;;;5098917;28;20204;-41
2021/05/14 01:23:52;;;;;;;1.33;1.02;;;;;;;;;;5116533;28;20180;-40
2021/05/14 01:26:20;;;;;;;1.00;0.90;;;;;;;;;;5118268;28;20165;-40
2021/05/14 01:28:46;;;;;;;1.17;1.08;;;;;;;;;;5117926;28;20184;-40
2021/05/14 01:31:13;;;;;;;1.17;1.08;;;;;;;;;;5116864;28;20484;-40
2021/05/14 01:33:40;;;;;;;0.80;0.80;;;;;;;;;;5117217;28;20177;-40
2021/05/14 01:36:06;;;;;;;1.67;0.90;;;;;;;;;;5117150;28;20181;-40
2021/05/14 01:38:32;;;;;;;1.00;0.90;;;;;;;;;;5117392;28;20329;-40
2021/05/14 01:40:59;;;;;;;1.05;0.82;;;;;;;;;;5117270;28;20283;-41
2021/05/14 01:43:25;;;;;;;0.90;0.90;;;;;;;;;;5111248;28;20182;-40
2021/05/14 01:45:51;;;;;;;0.85;0.85;;;;;;;;;;5104961;28;20177;-41
2021/05/14 01:48:17;;;;;;;0.90;0.90;;;;;;;;;;5117662;28;20211;-40
2021/05/14 01:50:44;;;;;;;0.80;0.80;;;;;;;;;;5110895;28;20185;-40
2021/05/14 01:53:10;;;;;;;0.82;0.82;;;;;;;;;;5117033;28;20181;-40
2021/05/14 01:55:37;;;;;;;0.80;0.80;;;;;;;;;;5117338;28;20237;-40
2021/05/14 01:58:03;;;;;;;0.80;0.80;;;;;;;;;;5109142;28;20174;-40
2021/05/14 02:00:29;;;;;;;1.05;0.80;;;;;;;;;;5107524;28;20204;-40
2021/05/14 02:02:55;;;;;;;1.00;1.00;;;;;;;;;;5116540;28;20209;-40
2021/05/14 02:05:22;;;;;;;1.27;0.95;;;;;;;;;;5116726;28;20226;-40
2021/05/14 02:07:48;;;;;;;1.10;1.00;;;;;;;;;;5115903;28;20216;-40
2021/05/14 02:10:14;;;;;;;0.73;0.73;;;;;;;;;;5116440;28;20474;-40
2021/05/14 02:12:40;;;;;;;0.75;0.75;;;;;;;;;;5105835;28;20185;-40
2021/05/14 02:15:07;;;;;;;0.90;0.90;;;;;;;;;;5101975;28;20567;-41
2021/05/14 02:17:33;;;;;;;0.93;0.93;;;;;;;;;;5117265;28;20175;-40
2021/05/14 02:19:59;;;;;;;2.03;1.05;;;;;;;;;;5116154;28;20518;-41
2021/05/14 02:22:25;;;;;;;1.20;1.00;;;;;;;;;;5116052;28;20211;-40
2021/05/14 02:24:51;;;;;;;0.80;0.80;;;;;;;;;;5117085;28;20169;-41
2021/05/14 02:27:18;;;;;;;0.70;0.70;;;;;;;;;;5108772;28;20222;-40
2021/05/14 02:29:46;;;;;;;1.67;0.80;;;;;;;;;;5116957;28;20444;-40
2021/05/14 02:32:12;;;;;;;0.80;0.80;;;;;;;;;;5115902;28;20177;-40
2021/05/14 02:34:38;;;;;;;0.70;0.70;;;;;;;;;;5116578;28;20180;-40
2021/05/14 02:37:04;;;;;;;0.75;0.75;;;;;;;;;;5116086;28;20180;-40
2021/05/14 02:39:30;;;;;;;0.95;0.85;;;;;;;;;;5116602;28;20261;-41
2021/05/14 02:41:56;;;;;;;0.80;0.80;;;;;;;;;;5115145;28;20609;-40
2021/05/14 02:44:22;;;;;;;1.30;0.93;;;;;;;;;;5116357;28;20169;-40
2021/05/14 02:46:48;;;;;;;0.90;0.90;;;;;;;;;;5114251;28;20192;-40
2021/05/14 02:49:14;;;;;;;0.70;0.70;;;;;;;;;;5116395;28;20193;-40
2021/05/14 02:51:40;;;;;;;0.60;0.60;;;;;;;;;;5115766;28;20578;-40
2021/05/14 02:54:06;;;;;;;0.73;0.73;;;;;;;;;;5114747;28;20188;-40
2021/05/14 02:56:33;;;;;;;0.70;0.70;;;;;;;;;;5114289;28;20203;-40
2021/05/14 02:58:59;;;;;;;0.70;0.70;;;;;;;;;;5116415;28;20201;-40
2021/05/14 03:01:25;;;;;;;0.98;0.90;;;;;;;;;;5114719;28;20231;-40
2021/05/14 03:03:51;;;;;;;0.80;0.80;;;;;;;;;;5115958;28;20180;-40
2021/05/14 03:06:17;;;;;;;0.60;0.60;;;;;;;;;;5115628;28;20173;-41
2021/05/14 03:08:43;;;;;;;0.75;0.75;;;;;;;;;;5115500;28;20227;-40
2021/05/14 03:11:09;;;;;;;0.60;0.60;;;;;;;;;;5114240;28;20185;-40
2021/05/14 03:13:35;;;;;;;0.60;0.60;;;;;;;;;;5115889;28;20181;-40
2021/05/14 03:16:02;;;;;;;0.80;0.80;;;;;;;;;;5115699;28;20624;-40
2021/05/14 03:18:28;;;;;;;0.80;0.80;;;;;;;;;;5115596;28;20184;-40
2021/05/14 03:20:55;;;;;;;0.90;0.80;;;;;;;;;;5115185;28;20275;-40
2021/05/14 03:23:21;;;;;;;0.80;0.80;;;;;;;;;;5114691;28;20173;-40
2021/05/14 03:25:47;;;;;;;0.88;0.88;;;;;;;;;;5115622;28;20181;-40
2021/05/14 03:28:13;;;;;;;0.93;0.82;;;;;;;;;;5115983;28;20201;-40
2021/05/14 03:30:39;;;;;;;0.75;0.75;;;;;;;;;;5115058;28;20585;-40
2021/05/14 03:33:06;;;;;;;0.90;0.90;;;;;;;;;;5115150;28;20180;-40
2021/05/14 03:35:32;;;;;;;0.63;0.63;;;;;;;;;;5115321;28;20264;-40
2021/05/14 03:37:58;;;;;;;0.60;0.60;;;;;;;;;;5114639;28;20200;-40
2021/05/14 03:42:56;;;;;;;1.00;0.82;;;;;;;;;;5115496;28;20232;-41
2021/05/14 03:45:22;;;;;;;1.77;0.80;;;;;;;;;;5115209;28;20205;-40
2021/05/14 03:47:49;;;;;;;0.75;0.75;;;;;;;;;;5115526;28;20478;-41
2021/05/14 03:50:15;;;;;;;2.15;0.88;;;;;;;;;;5115323;28;20560;-41
2021/05/14 03:52:41;;;;;;;0.80;0.80;;;;;;;;;;5113898;28;20180;-41
2021/05/14 03:55:08;;;;;;;1.73;0.70;;;;;;;;;;5110971;28;20186;-40
2021/05/14 03:57:34;;;;;;;1.08;0.90;;;;;;;;;;5115428;28;20265;-40
2021/05/14 04:00:00;;;;;;;1.13;0.75;;;;;;;;;;5115164;28;20185;-40
2021/05/14 04:02:26;;;;;;;0.82;0.80;;;;;;;;;;5114601;28;20257;-41
2021/05/14 04:04:52;;;;;;;0.93;0.70;;;;;;;;;;5114992;28;20184;-40
2021/05/14 04:07:20;;;;;;;0.68;0.68;;;;;;;;;;5113291;28;20200;-40
2021/05/14 04:10:25;;;;;;;0.55;0.55;;;;;;;;;;5115251;28;20708;-40
2021/05/14 04:15:06;;;;;;;0.60;0.60;;;;;;;;;;5114845;28;20223;-41
2021/05/14 04:17:32;;;;;;;0.57;0.57;;;;;;;;;;5115297;28;20240;-40
2021/05/14 04:19:59;;;;;;;0.73;0.73;;;;;;;;;;5115024;28;20192;-40
2021/05/14 04:22:26;;;;;;;0.68;0.68;;;;;;;;;;5103657;28;20205;-40
2021/05/14 04:24:52;;;;;;;0.88;0.60;;;;;;;;;;5088795;28;20575;-40
2021/05/14 04:27:18;;;;;;;0.85;0.60;;;;;;;;;;5114821;28;20189;-40
2021/05/14 04:29:44;;;;;;;0.73;0.70;;;;;;;;;;5115129;28;20817;-40
2021/05/14 04:32:10;;;;;;;1.35;0.93;;;;;;;;;;5113281;28;20280;-41
2021/05/14 04:34:36;;;;;;;0.63;0.63;;;;;;;;;;5114913;28;20254;-40
2021/05/14 04:37:03;;;;;;;0.60;0.57;;;;;;;;;;5113947;28;20592;-40
2021/05/14 04:39:29;;;;;;;0.80;0.80;;;;;;;;;;5114312;28;20173;-40
2021/05/14 04:41:55;;;;;;;0.70;0.70;;;;;;;;;;5113922;28;20287;-40
2021/05/14 04:44:21;;;;;;;0.90;0.75;;;;;;;;;;5105495;28;20185;-40
2021/05/14 04:46:47;;;;;;;0.57;0.57;;;;;;;;;;5094572;28;20472;-40
2021/05/14 04:49:13;;;;;;;0.57;0.57;;;;;;;;;;5094500;28;20171;-40
2021/05/14 04:51:39;;;;;;;0.60;0.60;;;;;;;;;;5113365;28;20181;-40
2021/05/14 04:54:05;;;;;;;0.73;0.63;;;;;;;;;;5114098;28;20188;-40
2021/05/14 04:56:32;;;;;;;0.60;0.60;;;;;;;;;;5114043;28;20189;-40
2021/05/14 04:58:58;;;;;;;0.68;0.68;;;;;;;;;;5113657;28;20209;-40
2021/05/14 05:01:24;;;;;;;0.60;0.60;;;;;;;;;;5113177;28;20233;-40
2021/05/14 05:03:56;;;;;;;0.80;0.80;;;;;;;;;;5112426;28;20527;-40
2021/05/14 05:06:22;;;;;;;0.60;0.60;;;;;;;;;;5112384;28;20176;-40
2021/05/14 05:08:48;;;;;;;0.57;0.57;;;;;;;;;;5114286;28;20181;-41
2021/05/14 05:11:15;;;;;;;0.60;0.60;;;;;;;;;;5113844;28;20212;-40
2021/05/14 05:13:41;;;;;;;0.63;0.63;;;;;;;;;;5099994;28;20188;-40
2021/05/14 05:16:07;;;;;;;0.68;0.68;;;;;;;;;;5094362;28;20253;-40
2021/05/14 05:18:33;;;;;;;0.50;0.50;;;;;;;;;;5111637;28;20593;-40
2021/05/14 05:20:59;;;;;;;0.60;0.60;;;;;;;;;;5115761;28;20221;-41
2021/05/14 05:23:26;;;;;;;1.15;0.60;;;;;;;;;;5117885;28;20199;-40
2021/05/14 05:25:52;;;;;;;0.63;0.63;;;;;;;;;;5118254;28;20253;-40
2021/05/14 05:28:22;;;;;;;0.85;0.50;;;;;;;;;;5118161;28;20533;-40
2021/05/14 05:30:48;;;;;;;0.68;0.68;;;;;;;;;;5117073;28;20238;-40
2021/05/14 05:33:14;;;;;;;0.60;0.60;;;;;;;;;;5116455;28;20181;-40
2021/05/14 05:35:40;;;;;;;0.50;0.50;;;;;;;;;;5110366;28;20442;-40
2021/05/14 05:38:16;;;;;;;0.63;0.63;;;;;;;;;;5112161;28;20540;-40
2021/05/14 05:40:42;;;;;;;0.70;0.50;;;;;;;;;;5117258;28;20184;-40
2021/05/14 05:43:08;;;;;;;0.63;0.60;;;;;;;;;;5117648;28;20232;-41
2021/05/14 05:45:34;;;;;;;0.70;0.70;;;;;;;;;;5117427;28;20268;-40
2021/05/14 05:48:00;;;;;;;0.50;0.50;;;;;;;;;;5087846;28;20177;-41
2021/05/14 05:50:26;;;;;;;0.80;0.60;;;;;;;;;;5111635;28;20177;-41
2021/05/14 05:52:54;;;;;;;0.60;0.60;;;;;;;;;;5116876;28;20862;-40
2021/05/14 05:55:20;;;;;;;0.63;0.60;;;;;;;;;;5117903;28;20280;-40
2021/05/14 05:57:46;;;;;;;0.50;0.50;;;;;;;;;;5117647;28;20491;-41
2021/05/14 06:00:13;;;;;;;0.75;0.60;;;;;;;;;;5117388;28;20536;-40
2021/05/14 06:02:39;;;;;;;0.57;0.57;;;;;;;;;;5102032;28;20202;-40
2021/05/14 06:05:05;;;;;;;0.60;0.60;;;;;;;;;;5097373;28;20249;-40
2021/05/14 06:07:31;;;;;;;0.60;0.60;;;;;;;;;;5117151;28;20176;-41
2021/05/14 06:09:57;;;;;;;0.52;0.52;;;;;;;;;;5117436;28;20176;-40
2021/05/14 06:12:23;;;;;;;0.43;0.43;;;;;;;;;;5116687;28;20165;-40
2021/05/14 06:14:50;;;;;;;0.60;0.60;;;;;;;;;;5096919;28;20306;-40
2021/05/14 06:17:16;;;;;;;0.73;0.60;;;;;;;;;;5112937;28;20191;-41
2021/05/14 06:19:50;;;;;;;0.70;0.70;;;;;;;;;;5116597;28;21520;-40
2021/05/14 06:22:16;;;;;;;0.60;0.60;;;;;;;;;;5116194;28;20208;-41
2021/05/14 06:24:42;;;;;;;0.65;0.60;;;;;;;;;;5116959;28;20173;-41
2021/05/14 06:27:08;;;;;;;0.77;0.60;;;;;;;;;;5117219;28;20169;-40
2021/05/14 06:29:34;;;;;;;0.60;0.60;;;;;;;;;;5113087;28;20184;-40
2021/05/14 06:32:00;;;;;;;0.50;0.50;;;;;;;;;;5115525;28;20185;-40
2021/05/14 06:34:27;;;;;;;0.63;0.63;;;;;;;;;;5117055;28;20197;-41
2021/05/14 06:36:53;;;;;;;0.82;0.82;;;;;;;;;;5116487;28;20714;-40
2021/05/14 06:39:19;;;;;;;0.50;0.50;;;;;;;;;;5116703;28;20173;-40
2021/05/14 06:41:45;;;;;;;0.60;0.60;;;;;;;;;;5116468;28;20197;-41
2021/05/14 06:44:12;;;;;;;0.80;0.80;;;;;;;;;;5115902;28;20184;-41
2021/05/14 06:46:39;;;;;;;0.70;0.70;;;;;;;;;;5116048;28;20192;-40
2021/05/14 06:49:07;;;;;;;0.60;0.60;;;;;;;;;;5115806;28;20447;-40
2021/05/14 06:51:33;;;;;;;0.60;0.60;;;;;;;;;;5115506;28;20173;-40
2021/05/14 06:53:59;;;;;;;0.57;0.57;;;;;;;;;;5116708;28;20444;-40
2021/05/14 06:56:26;;;;;;;0.75;0.75;;;;;;;;;;5116389;28;20218;-41
2021/05/14 06:58:54;;;;;;;0.57;0.57;;;;;;;;;;5111271;28;20205;-40
2021/05/14 07:01:20;;;;;;;0.50;0.50;;;;;;;;;;5095124;28;20205;-40
2021/05/14 07:03:46;;;;;;;0.63;0.63;;;;;;;;;;5116067;28;20248;-40
2021/05/14 07:06:13;;;;;;;0.68;0.68;;;;;;;;;;5115868;28;20272;-41
2021/05/14 07:08:39;;;;;;;0.60;0.60;;;;;;;;;;5115711;28;20599;-40
2021/05/14 07:11:05;;;;;;;0.60;0.60;;;;;;;;;;5114929;28;20205;-40
2021/05/14 07:13:31;;;;;;;0.73;0.60;;;;;;;;;;5108187;28;20553;-40
2021/05/14 07:15:59;;;;;;;0.60;0.60;;;;;;;;;;5111223;28;20185;-40
2021/05/14 07:18:25;;;;;;;0.60;0.60;;;;;;;;;;5115877;28;20285;-40
2021/05/14 07:20:51;;;;;;;1.25;0.60;;;;;;;;;;5114763;28;20185;-40
2021/05/14 07:23:17;;;;;;;0.57;0.57;;;;;;;;;;5112576;28;20173;-40
2021/05/14 07:25:43;;;;;;;0.60;0.60;;;;;;;;;;5115926;28;20161;-41
2021/05/14 07:28:09;;;;;;;0.55;0.55;;;;;;;;;;5114800;28;20402;-40
2021/05/14 07:30:35;;;;;;;0.60;0.60;;;;;;;;;;5114261;28;20186;-41
2021/05/14 07:33:01;;;;;;;0.60;0.60;;;;;;;;;;5115532;28;20582;-41
2021/05/14 07:35:27;;;;;;;0.70;0.65;;;;;;;;;;5115926;28;20207;-40
2021/05/14 07:37:53;;;;;;;1.10;0.70;;;;;;;;;;5114125;28;20200;-40
2021/05/14 07:40:19;;;;;;;1.40;1.00;;;;;;;;;;5114707;28;20204;-41
2021/05/14 07:42:45;;;;;;;1.30;0.90;;;;;;;;;;5114687;28;20200;-40
2021/05/14 07:45:11;;;;;;;1.27;0.80;;;;;;;;;;5114881;28;20532;-41
2021/05/14 07:47:38;;;;;;;1.58;0.90;;;;;;;;;;5115346;28;20171;-40
2021/05/14 07:50:04;;;;;;;2.30;0.75;;;;;;;;;;5114242;28;20165;-40
2021/05/14 07:52:30;;;;;;;0.80;0.80;;;;;;;;;;5114301;28;20176;-40
2021/05/14 07:54:57;;;;;;;3.70;0.80;;;;;;;;;;5115354;28;20172;-40
2021/05/14 07:57:22;;;;;;;3.00;0.70;;;;;;;;;;5114364;28;20187;-41
2021/05/14 07:59:48;;;;;;;1.55;0.80;;;;;;;;;;5115565;28;20169;-40
2021/05/14 08:02:15;;;;;;;1.00;0.88;;;;;;;;;;5109617;28;20240;-41
2021/05/14 08:04:41;;;;;;;1.45;0.80;;;;;;;;;;5113818;28;20492;-40
2021/05/14 08:07:07;;;;;;;0.85;0.80;;;;;;;;;;5114183;28;20188;-41
2021/05/14 08:09:33;;;;;;;1.88;0.80;;;;;;;;;;5114502;28;20583;-41
2021/05/14 08:12:02;;;;;;;0.98;0.77;;;;;;;;;;5114364;28;20189;-41
2021/05/14 08:14:28;;;;;;;1.30;0.73;;;;;;;;;;5113778;28;20595;-40
2021/05/14 08:16:54;;;;;;;0.80;0.80;;;;;;;;;;5113635;28;20191;-40
2021/05/14 08:19:20;;;;;;;0.98;0.80;;;;;;;;;;5104859;28;20181;-41
2021/05/14 08:21:46;;;;;;;0.90;0.70;;;;;;;;;;5095557;28;20583;-41
2021/05/14 08:24:13;;;;;;;1.13;0.90;;;;;;;;;;5112728;28;20176;-40
2021/05/14 08:26:39;;;;;;;3.42;1.83;;;;;;;;;;5102776;28;20646;-40
2021/05/14 08:29:06;;;;;;;2.70;1.45;;;;;;;;;;5115003;28;20169;-40
2021/05/14 08:31:34;;;;;;;2.08;1.50;;;;;;;;;;5114310;28;20552;-40
2021/05/14 08:34:01;;;;;;;5.20;1.38;;;;;;;;;;5094113;28;20204;-40
2021/05/14 08:36:27;;;;;;;1.88;1.33;;;;;;;;;;5113798;28;20177;-40
2021/05/14 08:38:53;;;;;;;3.72;1.48;;;;;;;;;;5114445;28;20204;-41
2021/05/14 08:41:20;;;;;;;2.78;1.48;;;;;;;;;;5114249;28;20211;-40
2021/05/14 08:43:46;;;;;;;2.45;1.55;;;;;;;;;;5114917;28;20188;-40
2021/05/14 08:46:13;;;;;;;5.18;1.80;;;;;;;;;;5114862;28;20548;-40
2021/05/14 08:48:40;;;;;;;6.43;1.40;;;;;;;;;;5114830;28;20165;-40
2021/05/14 08:51:07;;;;;;;3.28;1.90;;;;;;;;;;5112156;28;20173;-40
2021/05/14 08:53:33;;;;;;;3.50;1.60;;;;;;;;;;5114845;28;20189;-40
2021/05/14 08:55:59;;;;;;;1.67;1.55;;;;;;;;;;5118525;28;20165;-41
2021/05/14 08:58:26;;;;;;;4.22;1.42;;;;;;;;;;5118839;28;20222;-40
2021/05/14 09:00:52;;;;;;;3.15;1.58;;;;;;;;;;5117649;28;20476;-40
2021/05/14 09:03:20;;;;;;;1.40;1.20;;;;;;;;;;5117706;28;20213;-41
2021/05/14 09:05:47;;;;;;;4.25;1.40;;;;;;;;;;5118027;28;20216;-40
2021/05/14 09:08:13;;;;;;;2.00;1.30;;;;;;;;;;5110899;28;20256;-41
2021/05/14 09:10:39;;;;;;;2.95;1.30;;;;;;;;;;5117118;28;20264;-40
2021/05/14 09:13:12;;;;;;;1.83;1.35;;;;;;;;;;5110281;28;20185;-41
2021/05/14 09:15:40;;;;;;;1.85;1.10;;;;;;;;;;5118364;28;20181;-40
2021/05/14 09:18:25;;;;;;;2.88;1.25;;;;;;;;;;5118173;28;20571;-40
2021/05/14 09:20:54;;;;;;;2.75;1.42;;;;;;;;;;5114439;28;20524;-40
2021/05/14 09:23:20;;;;;;;2.33;1.17;;;;;;;;;;5117441;28;20185;-40
2021/05/14 09:25:53;;;;;;;1.67;1.17;;;;;;;;;;5115020;28;20169;-40
2021/05/14 09:28:23;;;;;;;2.40;1.70;;;;;;;;;;5118111;28;20181;-40
2021/05/14 09:31:05;;;;;;;2.40;1.65;;;;;;;;;;5117274;28;20177;-40
2021/05/14 09:33:32;;;;;;;2.75;1.75;;;;;;;;;;5118063;28;20177;-40
2021/05/14 09:36:02;;;;;;;2.03;1.52;;;;;;;;;;5117959;28;20177;-41
2021/05/14 09:38:38;;;;;;;4.10;1.70;;;;;;;;;;5117254;28;20189;-40
2021/05/14 09:41:04;;;;;;;1.60;1.45;;;;;;;;;;5116571;28;20488;-40
2021/05/14 09:43:30;;;;;;;4.05;1.70;;;;;;;;;;5117390;28;20208;-40
2021/05/14 09:45:56;;;;;;;1.70;1.33;;;;;;;;;;5117418;28;20248;-40
2021/05/14 09:48:25;;;;;;;2.63;1.23;;;;;;;;;;5116945;28;20484;-40
2021/05/14 09:50:52;;;;;;;2.65;1.50;;;;;;;;;;5112203;28;20185;-41
2021/05/14 09:53:19;;;;;;;3.33;1.58;;;;;;;;;;5117543;28;20650;-41
2021/05/14 09:55:59;;;;;;;6.68;1.70;;;;;;;;;;5116876;28;20222;-41
2021/05/14 09:58:27;;;;;;;3.25;1.58;;;;;;;;;;5117829;28;20501;-41
2021/05/14 10:00:53;;;;;;;4.78;1.73;;;;;;;;;;5116675;28;20224;-40
2021/05/14 10:03:20;;;;;;;1.40;1.30;;;;;;;;;;5117306;28;20650;-41
2021/05/14 10:05:48;;;;;;;3.38;1.27;;;;;;;;;;5117578;28;20215;-40
2021/05/14 10:08:15;;;;;;;3.08;1.58;;;;;;;;;;5117140;28;20264;-41
2021/05/14 10:10:42;;;;;;;2.78;1.50;;;;;;;;;;5116711;28;20185;-41
2021/05/14 10:13:10;;;;;;;3.10;1.45;;;;;;;;;;5115960;28;20181;-41
2021/05/14 10:15:36;;;;;;;2.95;1.50;;;;;;;;;;5115430;28;20169;-41
2021/05/14 10:18:06;;;;;;;3.00;1.40;;;;;;;;;;5104488;28;20173;-41
2021/05/14 10:20:32;;;;;;;5.43;1.70;;;;;;;;;;5116015;28;20262;-40
2021/05/14 10:23:00;;;;;;;4.05;1.83;;;;;;;;;;5116320;28;20258;-40
2021/05/14 10:25:35;;;;;;;1.95;1.40;;;;;;;;;;5117073;28;20734;-40
2021/05/14 10:28:09;;;;;;;3.70;1.70;;;;;;;;;;5117183;28;20169;-40
2021/05/14 10:30:35;;;;;;;4.93;1.85;;;;;;;;;;5114403;28;20254;-41
2021/05/14 10:33:02;;;;;;;2.33;1.65;;;;;;;;;;5099059;28;20217;-40
2021/05/14 10:35:29;;;;;;;4.10;1.98;;;;;;;;;;5116990;28;20165;-40
2021/05/14 10:37:58;;;;;;;3.13;1.70;;;;;;;;;;5116153;28;20184;-40
2021/05/14 10:40:31;;;;;;;3.00;1.73;;;;;;;;;;5116197;28;20185;-40
2021/05/14 10:42:59;;;;;;;5.75;2.03;;;;;;;;;;5116501;28;20283;-41
2021/05/14 10:45:34;;;;;;;2.60;1.90;;;;;;;;;;5116585;28;20165;-40
2021/05/14 10:48:01;;;;;;;6.18;2.05;;;;;;;;;;5102999;28;20226;-40
2021/05/14 10:50:33;;;;;;;8.02;2.30;;;;;;;;;;5110541;28;20638;-40
2021/05/14 10:53:26;;;;;;;10.52;2.42;;;;;;;;;;5111314;28;20188;-40
2021/05/14 10:55:52;;;;;;;10.13;2.90;;;;;;;;;;5101627;28;20181;-40
2021/05/14 10:58:41;;;;;;;10.02;2.30;;;;;;;;;;5115637;28;20459;-41
2021/05/14 11:01:07;;;;;;;8.82;2.50;;;;;;;;;;5110975;28;20527;-41
2021/05/14 11:03:34;;;;;;;9.02;2.45;;;;;;;;;;5112586;28;20199;-41
2021/05/14 11:06:17;;;;;;;9.43;2.53;;;;;;;;;;5111776;28;20170;-40
2021/05/14 11:08:45;;;;;;;10.95;3.00;;;;;;;;;;5113998;28;20450;-40
2021/05/14 11:11:13;;;;;;;12.23;2.92;;;;;;;;;;5114920;28;20172;-40
2021/05/14 11:13:40;;;;;;;13.65;2.83;;;;;;;;;;5115654;28;20173;-40
2021/05/14 11:16:25;;;;;;;7.93;2.35;;;;;;;;;;5115127;28;20180;-40
2021/05/14 11:18:51;;;;;;;5.40;2.20;;;;;;;;;;5115765;28;20181;-40
2021/05/14 11:21:19;;;;;;;4.78;2.10;;;;;;;;;;5112136;28;20185;-40
2021/05/14 11:23:45;;;;;;;7.00;1.90;;;;;;;;;;5113356;28;20184;-40
2021/05/14 11:26:18;;;;;;;3.58;1.80;;;;;;;;;;5115331;28;20487;-40
2021/05/14 11:28:48;;;;;;;7.28;2.20;;;;;;;;;;5114650;28;20741;-40
2021/05/14 11:31:14;;;;;;;5.18;2.00;;;;;;;;;;5114936;28;20177;-40
2021/05/14 11:33:54;;;;;;;4.53;2.00;;;;;;;;;;5115683;28;20248;-40
2021/05/14 11:36:21;;;;;;;4.70;1.80;;;;;;;;;;5110079;28;20184;-40
2021/05/14 11:38:51;;;;;;;3.75;1.95;;;;;;;;;;5092332;28;20197;-40
2021/05/14 11:41:24;;;;;;;3.20;1.70;;;;;;;;;;5096425;28;20218;-40
2021/05/14 11:43:57;;;;;;;7.13;1.95;;;;;;;;;;5107367;28;20177;-40
2021/05/14 11:46:24;;;;;;;4.15;1.52;;;;;;;;;;5112524;28;20264;-40
2021/05/14 11:48:50;;;;;;;2.05;1.67;;;;;;;;;;5113282;28;20181;-40
2021/05/14 11:51:16;;;;;;;2.65;1.52;;;;;;;;;;5113994;28;20174;-40
2021/05/14 11:53:42;;;;;;;5.53;1.77;;;;;;;;;;5112312;28;20275;-40
2021/05/14 11:56:08;;;;;;;1.88;1.13;;;;;;;;;;5112539;28;20313;-40
2021/05/14 11:58:34;;;;;;;2.53;1.48;;;;;;;;;;5114165;28;20226;-40
2021/05/14 12:01:03;;;;;;;3.03;1.50;;;;;;;;;;5104036;28;20193;-40
2021/05/14 12:03:29;;;;;;;4.97;1.58;;;;;;;;;;5113775;28;20185;-40
2021/05/14 12:06:03;;;;;;;3.80;1.45;;;;;;;;;;5114766;28;20538;-40
2021/05/14 12:08:29;;;;;;;4.80;1.65;;;;;;;;;;5111473;28;20216;-40
2021/05/14 12:10:56;;;;;;;6.47;2.30;;;;;;;;;;5113256;28;20161;-40
2021/05/14 12:13:23;;;;;;;6.25;2.60;;;;;;;;;;5115584;28;20173;-40
2021/05/14 12:16:02;;;;;;;7.72;2.78;;;;;;;;;;5114987;28;20192;-40
2021/05/14 12:18:28;;;;;;;8.38;2.40;;;;;;;;;;5114487;28;20168;-40
2021/05/14 12:20:56;;;;;;;6.95;2.85;;;;;;;;;;5113862;28;20434;-40
2021/05/14 12:23:23;;;;;;;7.28;3.30;;;;;;;;;;5114703;28;20220;-40
2021/05/14 12:25:50;;;;;;;9.40;2.95;;;;;;;;;;5115079;28;20165;-40
2021/05/14 12:28:36;;;;;;;10.70;3.67;;;;;;;;;;5113254;28;20178;-40
2021/05/14 12:31:03;;;;;;;12.90;4.07;;;;;;;;;;5104177;28;20179;-40
2021/05/14 12:33:29;;;;;;;10.23;3.67;;;;;;;;;;5118851;28;20225;-40
2021/05/14 12:35:55;;;;;;;8.95;3.97;;;;;;;;;;5118914;28;20173;-40
2021/05/14 12:38:36;;;;;;;10.48;4.28;;;;;;;;;;5118647;28;20256;-40
2021/05/14 12:41:02;;;;;;;9.07;3.65;;;;;;;;;;5098115;28;20567;-40
2021/05/14 12:43:28;;;;;;;12.30;3.30;;;;;;;;;;5111318;28;20192;-40
2021/05/14 12:46:04;;;;;;;11.38;3.45;;;;;;;;;;5116112;28;20201;-40
2021/05/14 12:48:30;;;;;;;10.85;4.18;;;;;;;;;;5116187;28;20176;-40
2021/05/14 12:50:56;;;;;;;10.82;3.70;;;;;;;;;;5116498;28;20172;-40
2021/05/14 12:53:23;;;;;;;9.88;4.40;;;;;;;;;;5114161;28;20181;-40
2021/05/14 12:55:50;;;;;;;10.60;4.20;;;;;;;;;;5116235;28;20222;-40
2021/05/14 12:58:16;;;;;;;10.60;3.75;;;;;;;;;;5118363;28;20181;-40
2021/05/14 13:00:42;;;;;;;10.73;3.60;;;;;;;;;;5116847;28;20552;-40
2021/05/14 13:03:13;;;;;;;9.63;4.07;;;;;;;;;;5116543;28;20320;-40
2021/05/14 13:05:42;;;;;;;11.02;4.10;;;;;;;;;;5111140;28;20219;-40
2021/05/14 13:08:09;;;;;;;12.55;4.18;;;;;;;;;;5117257;28;20200;-40
2021/05/14 13:10:35;;;;;;;10.35;3.95;;;;;;;;;;5100098;28;20181;-40
2021/05/14 13:13:02;;;;;;;6.75;2.88;;;;;;;;;;5114452;28;20441;-40
2021/05/14 13:15:28;;;;;;;8.07;3.30;;;;;;;;;;5115029;28;20173;-40
2021/05/14 13:17:54;;;;;;;11.18;3.50;;;;;;;;;;5091966;28;20174;-40
2021/05/14 13:20:20;;;;;;;7.40;3.40;;;;;;;;;;5115798;28;20201;-40
2021/05/14 13:22:46;;;;;;;9.13;3.58;;;;;;;;;;5114935;28;20482;-40
2021/05/14 13:25:12;;;;;;;6.53;3.30;;;;;;;;;;5115833;28;20274;-40
2021/05/14 13:27:40;;;;;;;9.90;3.67;;;;;;;;;;5116694;28;20165;-40
2021/05/14 13:30:08;;;;;;;8.93;3.60;;;;;;;;;;5099072;28;20433;-40
2021/05/14 13:32:34;;;;;;;7.80;3.33;;;;;;;;;;5113809;28;20181;-40
2021/05/14 13:35:00;;;;;;;9.00;3.70;;;;;;;;;;5117586;28;20176;-40
2021/05/14 13:37:27;;;;;;;9.98;3.72;;;;;;;;;;5117502;28;20443;-40
2021/05/14 13:39:53;;;;;;;7.97;3.22;;;;;;;;;;5116997;28;20537;-40
2021/05/14 13:42:19;;;;;;;8.00;3.38;;;;;;;;;;5113475;28;20208;-40
2021/05/14 13:44:45;;;;;;;5.18;2.80;;;;;;;;;;5117719;28;20173;-40
2021/05/14 13:47:11;;;;;;;9.73;3.22;;;;;;;;;;5116146;28;20425;-40
2021/05/14 13:49:37;;;;;;;9.40;2.90;;;;;;;;;;5117193;28;20455;-40
2021/05/14 13:52:03;;;;;;;6.60;3.20;;;;;;;;;;5114569;28;20181;-40
2021/05/14 13:54:29;;;;;;;5.88;2.92;;;;;;;;;;5114400;28;20282;-40
2021/05/14 13:56:55;;;;;;;7.30;2.97;;;;;;;;;;5116813;28;20209;-40
2021/05/14 13:59:21;;;;;;;6.15;2.78;;;;;;;;;;5109449;28;20227;-40
2021/05/14 14:01:47;;;;;;;6.45;2.90;;;;;;;;;;5115105;28;20257;-40
2021/05/14 14:04:13;;;;;;;8.57;3.08;;;;;;;;;;5116846;28;20181;-40
2021/05/14 14:06:39;;;;;;;6.03;2.70;;;;;;;;;;5114545;28;20192;-40
2021/05/14 14:09:06;;;;;;;6.43;2.72;;;;;;;;;;5117238;28;20218;-40
2021/05/14 14:11:32;;;;;;;5.95;2.72;;;;;;;;;;5113903;28;20177;-40
2021/05/14 14:13:57;;;;;;;7.05;2.65;;;;;;;;;;5112081;28;20186;-40
2021/05/14 14:16:24;;;;;;;8.60;3.13;;;;;;;;;;5111843;28;20238;-40
2021/05/14 14:18:50;;;;;;;5.85;1.95;;;;;;;;;;5113474;28;20204;-40
2021/05/14 14:21:16;;;;;;;4.75;2.30;;;;;;;;;;5107230;28;20469;-40
2021/05/14 14:23:42;;;;;;;5.25;2.53;;;;;;;;;;5101974;28;20182;-40
2021/05/14 14:26:08;;;;;;;4.78;2.78;;;;;;;;;;5101519;28;20480;-40
2021/05/14 14:28:34;;;;;;;5.70;2.45;;;;;;;;;;5109344;28;20288;-40
2021/05/14 14:31:00;;;;;;;5.93;2.60;;;;;;;;;;5111547;28;20248;-40
2021/05/14 14:33:26;;;;;;;5.60;2.33;;;;;;;;;;5104158;28;20419;-40
2021/05/14 14:35:52;;;;;;;6.45;2.30;;;;;;;;;;5115287;28;20599;-40
2021/05/14 14:38:18;;;;;;;5.13;2.58;;;;;;;;;;5115308;28;20261;-40
2021/05/14 14:40:44;;;;;;;5.10;2.40;;;;;;;;;;5116142;28;20199;-40
2021/05/14 14:43:12;;;;;;;5.00;2.15;;;;;;;;;;5116226;28;20208;-40
2021/05/14 14:45:38;;;;;;;4.53;2.22;;;;;;;;;;5116629;28;20434;-40
2021/05/14 14:48:04;;;;;;;5.03;2.20;;;;;;;;;;5116046;28;20173;-40